createdAt,value
2022-09-09T00:01:51.087Z,100043.75
2022-09-09T00:04:38.935Z,100049.91
2022-09-09T00:07:33.765Z,100048.19
2022-09-09T00:10:26.950Z,100045.44
2022-09-09T00:13:17.133Z,100043.72
2022-09-09T00:16:06.358Z,100047.22
2022-09-09T00:19:22.188Z,100061.31
2022-09-09T00:22:16.755Z,100061.38
2022-09-09T00:24:54.532Z,100071.19
2022-09-09T00:27:36.654Z,100075.50
2022-09-09T00:30:23.554Z,100073.78
2022-09-09T00:32:59.433Z,100071.09
2022-09-09T00:35:34.972Z,100080.84
2022-09-09T00:38:19.792Z,100071.13
2022-09-09T00:41:03.079Z,100079.22
2022-09-09T00:43:34.047Z,100085.41
2022-09-09T00:46:26.636Z,100090.75
2022-09-09T00:49:47.547Z,100078.41
2022-09-09T00:52:38.001Z,100090.94
2022-09-09T00:55:24.108Z,100089.09
2022-09-09T00:57:54.099Z,100078.50
2022-09-09T01:00:22.530Z,100094.44
2022-09-09T01:03:25.088Z,100099.72
2022-09-09T01:06:17.919Z,100122.91
2022-09-09T01:09:01.012Z,100119.41
2022-09-09T01:11:51.398Z,100124.91
2022-09-09T01:14:37.932Z,100122.25
2022-09-09T01:17:30.473Z,100125.84
2022-09-09T01:20:20.966Z,100133.88
2022-09-09T01:23:10.677Z,100119.63
2022-09-09T01:25:44.760Z,100131.00
2022-09-09T01:28:28.399Z,100127.53
2022-09-09T01:31:05.866Z,100118.72
2022-09-09T01:33:40.720Z,100129.38
2022-09-09T01:36:36.829Z,100132.94
2022-09-09T01:39:04.786Z,100135.56
2022-09-09T01:41:33.600Z,100150.53
2022-09-09T01:44:06.678Z,100141.63
2022-09-09T01:46:36.800Z,100146.03
2022-09-09T01:49:08.526Z,100149.59
2022-09-09T01:51:38.972Z,100160.19
2022-09-09T01:54:09.940Z,100158.41
2022-09-09T01:57:11.742Z,100161.03
2022-09-09T02:00:10.102Z,100165.50
2022-09-09T02:03:16.854Z,100172.59
2022-09-09T02:06:08.469Z,100173.50
2022-09-09T02:08:53.521Z,100185.03
2022-09-09T02:11:25.191Z,100185.88
2022-09-09T02:14:13.787Z,100177.03
2022-09-09T02:16:58.198Z,100177.88
2022-09-09T02:20:00.856Z,100176.88
2022-09-09T02:22:45.336Z,100160.91
2022-09-09T02:25:20.266Z,100163.56
2022-09-09T02:27:52.578Z,100168.03
2022-09-09T02:30:21.691Z,100172.44
2022-09-09T02:32:59.609Z,100176.81
2022-09-09T02:35:43.179Z,100175.88
2022-09-09T02:38:14.995Z,100172.38
2022-09-09T02:40:52.259Z,100173.28
2022-09-09T02:43:20.750Z,100181.28
2022-09-09T02:46:36.411Z,100175.94
2022-09-09T02:49:11.234Z,100176.03
2022-09-09T02:51:58.886Z,100179.56
2022-09-09T02:54:33.644Z,100184.16
2022-09-09T02:57:26.898Z,100189.50
2022-09-09T02:59:59.761Z,100194.00
2022-09-09T03:02:27.900Z,100197.56
2022-09-09T03:05:02.662Z,100201.13
2022-09-09T03:07:30.630Z,100206.50
2022-09-09T03:09:59.321Z,100199.50
2022-09-09T03:12:28.931Z,100201.25
2022-09-09T03:14:56.777Z,100200.38
2022-09-09T03:17:25.749Z,100207.50
2022-09-09T03:19:56.091Z,100206.69
2022-09-09T03:22:24.237Z,100212.03
2022-09-09T03:24:52.897Z,100211.16
2022-09-09T03:27:20.851Z,100214.66
2022-09-09T03:29:52.028Z,100212.06
2022-09-09T03:32:27.183Z,100223.63
2022-09-09T03:34:58.032Z,100227.22
2022-09-09T03:37:26.085Z,100228.09
2022-09-09T03:39:55.594Z,100226.31
2022-09-09T03:42:24.477Z,100229.94
2022-09-09T03:44:55.631Z,100230.84
2022-09-09T03:47:26.062Z,100232.69
2022-09-09T03:49:58.849Z,100238.00
2022-09-09T03:52:27.394Z,100244.19
2022-09-09T03:54:56.401Z,100232.72
2022-09-09T03:57:24.201Z,100238.03
2022-09-09T03:59:52.057Z,100245.09
2022-09-09T04:02:20.028Z,100250.41
2022-09-09T04:04:48.355Z,100256.53
2022-09-09T04:07:16.917Z,100257.44
2022-09-09T04:09:45.949Z,100258.34
2022-09-09T04:12:15.428Z,100269.88
2022-09-09T04:14:43.517Z,100264.56
2022-09-09T04:17:12.071Z,100262.75
2022-09-09T04:19:39.958Z,100272.47
2022-09-09T04:22:08.333Z,100274.28
2022-09-09T04:24:36.360Z,100278.66
2022-09-09T04:27:04.368Z,100279.50
2022-09-09T04:29:34.871Z,100287.44
2022-09-09T04:32:03.350Z,100284.81
2022-09-09T04:34:32.349Z,100288.34
2022-09-09T04:37:01.424Z,100286.63
2022-09-09T04:39:29.932Z,100288.34
2022-09-09T04:41:59.306Z,100298.19
2022-09-09T04:44:27.386Z,100301.72
2022-09-09T04:46:57.111Z,100291.97
2022-09-09T04:49:25.024Z,100302.69
2022-09-09T04:51:53.582Z,100309.78
2022-09-09T04:54:21.336Z,100318.66
2022-09-09T04:56:51.648Z,100316.88
2022-09-09T04:59:20.177Z,100313.34
2022-09-09T05:01:52.065Z,100313.34
2022-09-09T05:04:20.468Z,100324.00
2022-09-09T05:06:48.390Z,100329.34
2022-09-09T05:09:16.809Z,100331.16
2022-09-09T05:11:46.200Z,100332.94
2022-09-09T05:14:27.663Z,100329.41
2022-09-09T05:16:57.163Z,100338.25
2022-09-09T05:19:25.710Z,100339.13
2022-09-09T05:21:54.950Z,100335.56
2022-09-09T05:24:29.331Z,100343.56
2022-09-09T05:27:02.082Z,100337.28
2022-09-09T05:29:30.125Z,100336.44
2022-09-09T05:31:58.793Z,100333.75
2022-09-09T05:34:26.805Z,100343.56
2022-09-09T05:36:54.926Z,100348.88
2022-09-09T05:39:24.512Z,100350.66
2022-09-09T05:41:52.921Z,100349.75
2022-09-09T05:44:21.397Z,100352.41
2022-09-09T05:46:49.317Z,100357.72
2022-09-09T05:49:18.101Z,100369.16
2022-09-09T05:51:46.345Z,100381.59
2022-09-09T05:54:16.547Z,100382.47
2022-09-09T05:56:51.805Z,100394.81
2022-09-09T05:59:21.107Z,100378.84
2022-09-09T06:01:49.095Z,100388.59
2022-09-09T06:04:32.397Z,100388.56
2022-09-09T06:07:02.067Z,100398.28
2022-09-09T06:09:31.575Z,100395.56
2022-09-09T06:11:59.563Z,100392.00
2022-09-09T06:14:28.251Z,100388.41
2022-09-09T06:16:58.944Z,100394.59
2022-09-09T06:19:31.734Z,100386.59
2022-09-09T06:22:00.717Z,100390.16
2022-09-09T06:24:31.327Z,100391.03
2022-09-09T06:27:01.351Z,100397.16
2022-09-09T06:29:33.821Z,100414.81
2022-09-09T06:32:04.198Z,100429.81
2022-09-09T06:34:32.331Z,100415.66
2022-09-09T06:37:01.747Z,100411.19
2022-09-09T06:39:36.669Z,100411.19
2022-09-09T06:42:05.088Z,100410.28
2022-09-09T06:44:51.013Z,100399.59
2022-09-09T06:47:25.868Z,100406.66
2022-09-09T06:49:54.591Z,100401.31
2022-09-09T06:52:22.407Z,100398.63
2022-09-09T06:54:51.754Z,100393.25
2022-09-09T07:00:15.189Z,100420.06
2022-09-09T07:02:43.177Z,100413.56
2022-09-09T07:05:12.542Z,100409.84
2022-09-09T07:07:42.889Z,100397.28
2022-09-09T07:10:13.036Z,100384.75
2022-09-09T07:12:41.422Z,100393.56
2022-09-09T07:15:12.137Z,100385.59
2022-09-09T07:17:43.293Z,100381.97
2022-09-09T07:20:11.734Z,100375.72
2022-09-09T07:22:40.359Z,100380.09
2022-09-09T07:25:09.477Z,100380.94
2022-09-09T07:27:38.373Z,100377.19
2022-09-09T07:30:07.823Z,100370.94
2022-09-09T07:32:36.690Z,100360.16
2022-09-09T07:35:04.975Z,100371.63
2022-09-09T07:37:32.789Z,100376.84
2022-09-09T07:40:03.271Z,100371.44
2022-09-09T07:42:32.078Z,100375.81
2022-09-09T07:45:00.478Z,100378.34
2022-09-09T07:47:28.756Z,100391.63
2022-09-09T07:49:59.906Z,100389.13
2022-09-09T07:52:32.456Z,100389.25
2022-09-09T07:55:05.644Z,100394.63
2022-09-09T07:57:34.103Z,100402.72
2022-09-09T08:00:04.569Z,100406.38
2022-09-09T08:02:40.213Z,100434.97
2022-09-09T08:05:09.880Z,100429.63
2022-09-09T08:07:40.233Z,100454.34
2022-09-09T08:10:08.917Z,100451.66
2022-09-09T08:12:40.271Z,100447.00
2022-09-09T08:15:13.654Z,100453.09
2022-09-09T08:17:41.968Z,100446.81
2022-09-09T08:20:10.700Z,100452.97
2022-09-09T08:22:40.067Z,100431.03
2022-09-09T08:25:09.553Z,100459.06
2022-09-09T08:27:39.018Z,100483.38
2022-09-09T08:30:09.108Z,100484.47
2022-09-09T08:32:37.748Z,100482.00
2022-09-09T08:35:08.591Z,100451.19
2022-09-09T08:37:36.869Z,100443.31
2022-09-09T08:40:09.548Z,100435.97
2022-09-09T08:42:48.127Z,100467.22
2022-09-09T08:45:33.528Z,100429.19
2022-09-09T08:48:18.459Z,100432.53
2022-09-09T08:50:50.517Z,100415.72
2022-09-09T08:53:31.388Z,100455.69
2022-09-09T08:56:11.262Z,100442.88
2022-09-09T08:58:54.533Z,100388.38
2022-09-09T09:02:16.792Z,100399.84
2022-09-09T09:05:14.773Z,100357.06
2022-09-09T09:07:57.801Z,100358.13
2022-09-09T09:11:01.180Z,100385.00
2022-09-09T09:13:44.038Z,100362.81
2022-09-09T09:16:27.748Z,100369.47
2022-09-09T09:18:56.200Z,100381.00
2022-09-09T09:22:11.698Z,100393.16
2022-09-09T09:24:58.279Z,100356.75
2022-09-09T09:27:45.087Z,100385.06
2022-09-09T09:30:30.048Z,100367.47
2022-09-09T09:33:27.933Z,100372.88
2022-09-09T09:35:55.984Z,100383.56
2022-09-09T09:41:15.941Z,100393.84
2022-09-09T09:43:55.533Z,100404.13
2022-09-09T09:46:28.316Z,100411.91
2022-09-09T09:49:09.831Z,100382.13
2022-09-09T09:51:38.853Z,100388.22
2022-09-09T09:54:14.314Z,100403.13
2022-09-09T09:56:45.015Z,100415.13
2022-09-09T09:59:39.526Z,100433.31
2022-09-09T10:02:26.675Z,100424.22
2022-09-09T10:05:20.985Z,100374.03
2022-09-09T10:08:22.163Z,100357.03
2022-09-09T10:11:49.269Z,100338.03
2022-09-09T10:14:38.677Z,100354.09
2022-09-09T10:17:33.822Z,100332.81
2022-09-09T10:20:13.692Z,100360.16
2022-09-09T10:22:48.617Z,100297.28
2022-09-09T10:25:40.907Z,100291.88
2022-09-09T10:29:13.279Z,100259.72
2022-09-09T10:32:21.612Z,100276.13
2022-09-09T10:35:27.121Z,100253.19
2022-09-09T10:38:12.104Z,100292.25
2022-09-09T10:40:59.184Z,100282.19
2022-09-09T10:43:46.548Z,100212.25
2022-09-09T10:46:23.859Z,100190.47
2022-09-09T10:49:24.331Z,100230.28
2022-09-09T10:52:21.928Z,100119.94
2022-09-09T10:55:02.820Z,100145.66
2022-09-09T10:57:49.794Z,100104.50
2022-09-09T11:00:46.736Z,100049.78
2022-09-09T11:03:23.562Z,100054.00
2022-09-09T11:06:06.069Z,100055.63
2022-09-09T11:08:39.550Z,100058.78
2022-09-09T11:11:28.206Z,100033.28
2022-09-09T11:14:21.636Z,100023.56
2022-09-09T11:16:57.274Z,99990.03
2022-09-09T11:19:36.918Z,100011.50
2022-09-09T11:22:52.005Z,100025.50
2022-09-09T11:25:23.604Z,100030.09
2022-09-09T11:28:12.952Z,100056.09
2022-09-09T11:31:17.822Z,100072.66
2022-09-09T11:34:31.613Z,100058.31
2022-09-09T11:37:33.256Z,100118.34
2022-09-09T11:40:20.519Z,100087.78
2022-09-09T11:42:52.160Z,100024.50
2022-09-09T11:45:30.244Z,99980.19
2022-09-09T11:48:01.171Z,99970.38
2022-09-09T11:50:38.604Z,99925.22
2022-09-09T11:53:23.685Z,99927.78
2022-09-09T11:56:14.459Z,99945.34
2022-09-09T11:58:54.536Z,99916.66
2022-09-09T12:01:38.127Z,99870.16
2022-09-09T12:04:40.791Z,99992.22
2022-09-09T12:07:12.340Z,100087.38
2022-09-09T12:09:50.082Z,99976.84
2022-09-09T12:12:25.226Z,99969.63
2022-09-09T12:15:08.317Z,100056.88
2022-09-09T12:17:51.633Z,99987.69
2022-09-09T12:20:24.659Z,99988.56
2022-09-09T12:23:17.312Z,99992.06
2022-09-09T12:26:27.976Z,100027.59
2022-09-09T12:29:06.861Z,99974.38
2022-09-09T12:32:01.558Z,100001.31
2022-09-09T12:34:41.147Z,100016.94
2022-09-09T12:37:36.421Z,100031.72
2022-09-09T12:40:25.743Z,99989.22
2022-09-09T12:42:56.311Z,99988.97
2022-09-09T12:45:28.049Z,99995.72
2022-09-09T12:48:04.601Z,100014.31
2022-09-09T12:50:49.906Z,100017.47
2022-09-09T12:53:33.965Z,100023.22
2022-09-09T12:56:22.606Z,100025.06
2022-09-09T12:58:52.954Z,100051.09
2022-09-09T13:01:31.139Z,100087.13
2022-09-09T13:04:00.008Z,100106.34
2022-09-09T13:06:30.846Z,100140.75
2022-09-09T13:09:02.095Z,100147.41
2022-09-09T13:11:44.405Z,100101.44
2022-09-09T13:14:27.397Z,100144.84
2022-09-09T13:17:04.606Z,100072.09
2022-09-09T13:19:38.956Z,100024.88
2022-09-09T13:22:23.466Z,100021.84
2022-09-09T13:25:14.954Z,100069.41
2022-09-09T13:27:54.421Z,100073.81
2022-09-09T13:30:28.690Z,100063.41
2022-09-09T13:33:24.062Z,100021.19
2022-09-09T13:36:08.383Z,99943.63
2022-09-09T13:39:00.571Z,99974.16
2022-09-09T13:41:47.861Z,99995.69
2022-09-09T13:44:24.025Z,99934.88
2022-09-09T13:47:10.176Z,99988.78
2022-09-09T13:49:38.727Z,99980.59
2022-09-09T13:52:15.384Z,99947.47
2022-09-09T13:54:43.877Z,99947.16
2022-09-09T13:57:25.476Z,99958.91
2022-09-09T14:00:11.315Z,99929.47
2022-09-09T14:02:40.202Z,99969.31
2022-09-09T14:05:08.210Z,100065.38
2022-09-09T14:07:36.084Z,100030.50
2022-09-09T14:10:04.121Z,100037.97
2022-09-09T14:12:32.020Z,99932.22
2022-09-09T14:15:00.879Z,99901.00
2022-09-09T14:17:31.565Z,99933.44
2022-09-09T14:19:59.764Z,99944.59
2022-09-09T14:22:27.552Z,99914.41
2022-09-09T14:25:17.892Z,99858.09
2022-09-09T14:27:46.945Z,99828.88
2022-09-09T14:30:14.773Z,99824.09
2022-09-09T14:32:42.527Z,99829.13
2022-09-09T14:35:10.378Z,99835.09
2022-09-09T14:37:40.057Z,99829.94
2022-09-09T14:40:08.542Z,99859.88
2022-09-09T14:42:36.371Z,99879.56
2022-09-09T14:45:04.720Z,99877.94
2022-09-09T14:47:32.502Z,99871.09
2022-09-09T14:50:01.985Z,99820.81
2022-09-09T14:52:31.230Z,99805.22
2022-09-09T14:54:59.041Z,99813.88
2022-09-09T14:57:26.904Z,99838.59
2022-09-09T14:59:54.730Z,99876.63
2022-09-09T15:02:22.757Z,99923.16
2022-09-09T15:04:54.448Z,99911.28
2022-09-09T15:07:23.282Z,99953.91
2022-09-09T15:09:51.418Z,99972.72
2022-09-09T15:12:19.873Z,99987.00
2022-09-09T15:14:48.144Z,99989.44
2022-09-09T15:17:15.922Z,99986.72
2022-09-09T15:19:43.737Z,100003.22
2022-09-09T15:22:11.475Z,99987.47
2022-09-09T15:24:39.303Z,99980.47
2022-09-09T15:27:07.134Z,100002.19
2022-09-09T15:29:34.938Z,100002.31
2022-09-09T15:32:03.129Z,100019.53
2022-09-09T15:34:30.962Z,100019.84
2022-09-09T15:37:00.921Z,100023.91
2022-09-09T15:39:29.300Z,100025.69
2022-09-09T15:41:57.838Z,99974.97
2022-09-09T15:44:26.518Z,99971.69
2022-09-09T15:46:57.594Z,99969.56
2022-09-09T15:49:27.338Z,99953.41
2022-09-09T15:52:03.313Z,99982.34
2022-09-09T15:54:40.090Z,99962.78
2022-09-09T15:57:12.519Z,99980.63
2022-09-09T15:59:41.250Z,100018.03
2022-09-09T16:02:11.113Z,99966.75
2022-09-09T16:04:39.082Z,99941.44
2022-09-09T16:07:07.228Z,99942.28
2022-09-09T16:09:36.120Z,99960.72
2022-09-09T16:12:10.736Z,99954.22
2022-09-09T16:14:39.617Z,99957.59
2022-09-09T16:17:07.869Z,99983.06
2022-09-09T16:19:36.081Z,99986.97
2022-09-09T16:22:05.114Z,99988.44
2022-09-09T16:24:33.079Z,100003.44
2022-09-09T16:27:01.019Z,99999.63
2022-09-09T16:29:28.884Z,99997.69
2022-09-09T16:32:00.054Z,99996.81
2022-09-09T16:34:34.577Z,99992.84
2022-09-09T16:37:03.169Z,100021.09
2022-09-09T16:39:31.090Z,100021.47
2022-09-09T16:41:58.878Z,100026.50
2022-09-09T16:44:27.186Z,100020.47
2022-09-09T16:47:00.467Z,100022.13
2022-09-09T16:49:31.868Z,100013.47
2022-09-09T16:52:00.587Z,100011.22
2022-09-09T16:54:30.091Z,100005.69
2022-09-09T16:56:58.673Z,100023.28
2022-09-09T16:59:27.622Z,100021.03
2022-09-09T17:01:55.962Z,100022.75
2022-09-09T17:04:28.919Z,100019.19
2022-09-09T17:07:01.345Z,100017.44
2022-09-09T17:09:30.305Z,100017.19
2022-09-09T17:11:59.505Z,100003.41
2022-09-09T17:14:27.400Z,100031.31
2022-09-09T17:16:55.134Z,100032.53
2022-09-09T17:19:23.321Z,100038.34
2022-09-09T17:22:16.861Z,100049.34
2022-09-09T17:24:39.872Z,100070.69
2022-09-09T17:27:08.208Z,100087.91
2022-09-09T17:29:36.999Z,100073.91
2022-09-09T17:32:06.479Z,100082.88
2022-09-09T17:34:36.025Z,100092.56
2022-09-09T17:37:05.337Z,100088.03
2022-09-09T17:39:33.836Z,100079.25
2022-09-09T17:42:01.772Z,100054.56
2022-09-09T17:44:29.983Z,100028.91
2022-09-09T17:46:58.164Z,100016.66
2022-09-09T17:49:26.265Z,99992.38
2022-09-09T17:51:55.457Z,99977.38
2022-09-09T17:54:23.973Z,99952.84
2022-09-09T17:56:51.872Z,99973.22
2022-09-09T17:59:20.329Z,99983.25
2022-09-09T18:01:52.996Z,100000.56
2022-09-09T18:04:21.054Z,99992.16
2022-09-09T18:06:52.821Z,99986.50
2022-09-09T18:09:25.770Z,100004.34
2022-09-09T18:11:56.998Z,100009.09
2022-09-09T18:14:31.480Z,100022.84
2022-09-09T18:17:01.613Z,100063.75
2022-09-09T18:19:33.118Z,100084.53
2022-09-09T18:22:02.884Z,100087.41
2022-09-09T18:24:31.867Z,100104.44
2022-09-09T18:26:59.814Z,100108.81
2022-09-09T18:29:27.865Z,100127.38
2022-09-09T18:31:56.273Z,100154.97
2022-09-09T18:34:25.966Z,100156.81
2022-09-09T18:36:55.833Z,100174.63
2022-09-09T18:39:28.031Z,100169.50
2022-09-09T18:42:01.641Z,100177.41
2022-09-09T18:44:33.346Z,100180.84
2022-09-09T18:47:01.825Z,100184.50
2022-09-09T18:49:30.062Z,100188.94
2022-09-09T18:51:58.044Z,100194.50
2022-09-09T18:54:30.193Z,100199.88
2022-09-09T18:57:00.765Z,100185.81
2022-09-09T18:59:29.651Z,100202.50
2022-09-09T19:01:57.950Z,100200.81
2022-09-09T19:04:27.378Z,100213.13
2022-09-09T19:06:59.822Z,100200.66
2022-09-09T19:09:31.706Z,100190.88
2022-09-09T19:12:01.288Z,100184.56
2022-09-09T19:14:29.756Z,100182.88
2022-09-09T19:16:57.980Z,100165.97
2022-09-09T19:19:31.218Z,100182.69
2022-09-09T19:22:00.607Z,100189.94
2022-09-09T19:24:32.006Z,100197.09
2022-09-09T19:27:04.598Z,100220.16
2022-09-09T19:29:36.525Z,100222.00
2022-09-09T19:34:53.159Z,100236.09
2022-09-09T19:37:22.490Z,100251.06
2022-09-09T19:39:50.807Z,100239.47
2022-09-09T19:42:19.245Z,100241.28
2022-09-09T19:44:47.518Z,100241.25
2022-09-09T19:47:15.691Z,100237.69
2022-09-09T19:49:47.003Z,100238.63
2022-09-09T19:52:17.083Z,100243.16
2022-09-09T19:54:46.761Z,100244.94
2022-09-09T19:57:16.199Z,100242.25
2022-09-09T19:59:44.108Z,100256.56
2022-09-09T20:02:15.913Z,100260.06
2022-09-09T20:04:44.623Z,100268.03
2022-09-09T20:07:12.989Z,100272.47
2022-09-09T20:09:40.768Z,100274.28
2022-09-09T20:12:08.723Z,100270.75
2022-09-09T20:14:39.562Z,100267.31
2022-09-09T20:17:08.285Z,100283.25
2022-09-09T20:19:36.215Z,100272.53
2022-09-09T20:22:04.420Z,100271.63
2022-09-09T20:24:32.193Z,100276.03
2022-09-09T20:26:59.990Z,100269.00
2022-09-09T20:29:27.799Z,100262.75
2022-09-09T20:31:55.614Z,100253.09
2022-09-09T20:34:25.957Z,100273.44
2022-09-09T20:36:54.713Z,100272.56
2022-09-09T20:39:22.569Z,100282.34
2022-09-09T20:41:50.636Z,100285.06
2022-09-09T20:44:24.268Z,100294.81
2022-09-09T20:47:02.819Z,100309.88
2022-09-09T20:49:30.955Z,100317.06
2022-09-09T20:51:58.831Z,100321.50
2022-09-09T20:54:30.316Z,100324.13
2022-09-09T20:57:00.395Z,100332.16
2022-09-09T20:59:34.746Z,100342.84
2022-09-09T21:02:03.441Z,100345.56
2022-09-09T21:04:31.671Z,100355.19
2022-09-09T21:06:59.621Z,100350.81
2022-09-09T21:09:27.377Z,100344.63
2022-09-09T21:11:55.261Z,100336.56
2022-09-09T21:14:23.125Z,100325.84
2022-09-09T21:16:51.186Z,100326.72
2022-09-09T21:19:18.949Z,100335.63
2022-09-09T21:21:47.947Z,100337.34
2022-09-09T21:24:17.008Z,100333.81
2022-09-09T21:26:44.940Z,100328.56
2022-09-09T21:29:13.233Z,100335.69
2022-09-09T21:31:43.178Z,100343.66
2022-09-09T21:34:13.470Z,100336.56
2022-09-09T21:36:41.322Z,100361.41
2022-09-09T21:39:09.301Z,100360.59
2022-09-09T21:41:37.066Z,100367.69
2022-09-09T21:44:04.862Z,100352.69
2022-09-09T21:46:32.745Z,100357.13
2022-09-09T21:49:03.509Z,100355.41
2022-09-09T21:51:31.305Z,100363.38
2022-09-09T21:53:59.067Z,100368.72
2022-09-09T21:56:27.052Z,100376.72
2022-09-09T21:58:59.687Z,100388.28
2022-09-09T22:01:27.546Z,100377.56
2022-09-09T22:03:55.748Z,100381.16
2022-09-09T22:06:23.554Z,100394.53
2022-09-09T22:08:51.728Z,100395.41
2022-09-09T22:11:22.544Z,100398.09
2022-09-09T22:13:53.197Z,100410.47
2022-09-09T22:16:23.552Z,100408.75
2022-09-09T22:19:01.829Z,100408.78
2022-09-09T22:21:33.042Z,100426.56
2022-09-09T22:24:04.541Z,100415.91
2022-09-09T22:26:35.084Z,100424.78
2022-09-09T22:29:04.989Z,100431.03
2022-09-09T22:31:34.100Z,100445.22
2022-09-09T22:34:02.952Z,100430.09
2022-09-09T22:36:31.900Z,100432.78
2022-09-09T22:39:00.040Z,100445.25
2022-09-09T22:41:30.018Z,100452.34
2022-09-09T22:43:58.971Z,100453.25
2022-09-09T22:46:26.873Z,100442.59
2022-09-09T22:48:55.042Z,100442.63
2022-09-09T22:51:23.004Z,100445.25
2022-09-09T22:53:50.920Z,100441.72
2022-09-09T22:56:20.738Z,100438.19
2022-09-09T22:58:53.341Z,100438.25
2022-09-09T23:01:22.366Z,100437.34
2022-09-09T23:03:51.337Z,100445.34
2022-09-09T23:06:23.033Z,100448.81
2022-09-09T23:09:00.585Z,100443.56
2022-09-09T23:11:33.355Z,100437.34
2022-09-09T23:14:04.007Z,100440.91
2022-09-09T23:16:41.542Z,100441.78
2022-09-09T23:19:16.053Z,100434.63
2022-09-09T23:21:46.259Z,100438.22
2022-09-09T23:24:17.584Z,100438.19
2022-09-09T23:26:46.530Z,100434.72
2022-09-09T23:29:15.034Z,100440.06
2022-09-09T23:31:45.755Z,100442.72
2022-09-09T23:34:14.399Z,100448.91
2022-09-09T23:36:42.398Z,100456.06
2022-09-09T23:39:13.258Z,100450.75
2022-09-09T23:41:41.417Z,100465.00
2022-09-09T23:44:10.117Z,100474.75
2022-09-09T23:46:38.040Z,100468.59
2022-09-09T23:49:08.319Z,100470.38
2022-09-09T23:51:37.877Z,100471.31
2022-09-09T23:54:06.670Z,100472.19
2022-09-09T23:56:42.463Z,100460.69
2022-09-09T23:59:11.299Z,100455.38
